sensor_id;sensor_type;location;lat;lon;timestamp;P1;durP1;ratioP1;P2;durP2;ratioP2
33138;SDS011;19501;50.948;5.316;2022-11-23T00:00:00;17.63;;;3.35;;
33138;SDS011;19501;50.948;5.316;2022-11-23T00:02:26;14.30;;;3.55;;
33138;SDS011;19501;50.948;5.316;2022-11-23T00:04:51;12.43;;;2.85;;
33138;SDS011;19501;50.948;5.316;2022-11-23T00:07:17;14.40;;;2.60;;
33138;SDS011;19501;50.948;5.316;2022-11-23T00:09:43;12.38;;;2.80;;
33138;SDS011;19501;50.948;5.316;2022-11-23T00:12:08;14.57;;;2.88;;
33138;SDS011;19501;50.948;5.316;2022-11-23T00:14:34;17.80;;;3.47;;
33138;SDS011;19501;50.948;5.316;2022-11-23T00:17:00;20.42;;;3.95;;
33138;SDS011;19501;50.948;5.316;2022-11-23T00:19:25;17.25;;;3.55;;
33138;SDS011;19501;50.948;5.316;2022-11-23T00:21:51;12.77;;;3.25;;
33138;SDS011;19501;50.948;5.316;2022-11-23T00:24:17;16.35;;;3.15;;
33138;SDS011;19501;50.948;5.316;2022-11-23T00:26:44;12.25;;;3.10;;
33138;SDS011;19501;50.948;5.316;2022-11-23T00:29:09;12.27;;;3.05;;
33138;SDS011;19501;50.948;5.316;2022-11-23T00:31:35;7.40;;;2.80;;
33138;SDS011;19501;50.948;5.316;2022-11-23T00:34:01;15.40;;;3.00;;
33138;SDS011;19501;50.948;5.316;2022-11-23T00:36:27;15.30;;;3.35;;
33138;SDS011;19501;50.948;5.316;2022-11-23T00:38:52;13.38;;;3.53;;
33138;SDS011;19501;50.948;5.316;2022-11-23T00:41:19;14.05;;;3.38;;
33138;SDS011;19501;50.948;5.316;2022-11-23T00:43:50;12.52;;;3.13;;
33138;SDS011;19501;50.948;5.316;2022-11-23T00:48:44;8.82;;;2.40;;
33138;SDS011;19501;50.948;5.316;2022-11-23T00:51:12;10.30;;;2.63;;
33138;SDS011;19501;50.948;5.316;2022-11-23T00:53:40;12.10;;;2.60;;
33138;SDS011;19501;50.948;5.316;2022-11-23T00:56:07;10.73;;;2.83;;
33138;SDS011;19501;50.948;5.316;2022-11-23T00:58:33;16.00;;;3.70;;
33138;SDS011;19501;50.948;5.316;2022-11-23T01:01:06;15.77;;;3.25;;
33138;SDS011;19501;50.948;5.316;2022-11-23T01:03:35;13.43;;;3.00;;
33138;SDS011;19501;50.948;5.316;2022-11-23T01:06:03;13.43;;;2.70;;
33138;SDS011;19501;50.948;5.316;2022-11-23T01:08:32;9.63;;;2.83;;
33138;SDS011;19501;50.948;5.316;2022-11-23T01:10:59;13.13;;;3.13;;
33138;SDS011;19501;50.948;5.316;2022-11-23T01:13:32;16.83;;;3.25;;
33138;SDS011;19501;50.948;5.316;2022-11-23T01:16:01;18.98;;;4.28;;
33138;SDS011;19501;50.948;5.316;2022-11-23T01:18:32;11.18;;;3.47;;
33138;SDS011;19501;50.948;5.316;2022-11-23T01:20:59;14.90;;;3.25;;
33138;SDS011;19501;50.948;5.316;2022-11-23T01:23:27;17.52;;;3.55;;
33138;SDS011;19501;50.948;5.316;2022-11-23T01:25:53;15.23;;;3.40;;
33138;SDS011;19501;50.948;5.316;2022-11-23T01:28:19;14.68;;;3.53;;
33138;SDS011;19501;50.948;5.316;2022-11-23T01:30:44;16.13;;;4.07;;
33138;SDS011;19501;50.948;5.316;2022-11-23T01:33:10;13.30;;;3.30;;
33138;SDS011;19501;50.948;5.316;2022-11-23T01:35:38;31.50;;;4.63;;
33138;SDS011;19501;50.948;5.316;2022-11-23T01:38:04;19.83;;;4.05;;
33138;SDS011;19501;50.948;5.316;2022-11-23T01:40:29;13.50;;;3.25;;
33138;SDS011;19501;50.948;5.316;2022-11-23T01:42:56;14.65;;;3.03;;
33138;SDS011;19501;50.948;5.316;2022-11-23T01:45:30;18.98;;;4.43;;
33138;SDS011;19501;50.948;5.316;2022-11-23T01:48:25;22.80;;;4.80;;
33138;SDS011;19501;50.948;5.316;2022-11-23T01:50:57;15.98;;;3.58;;
33138;SDS011;19501;50.948;5.316;2022-11-23T01:53:25;15.25;;;3.03;;
33138;SDS011;19501;50.948;5.316;2022-11-23T01:55:53;19.60;;;3.58;;
33138;SDS011;19501;50.948;5.316;2022-11-23T01:58:24;16.02;;;3.42;;
33138;SDS011;19501;50.948;5.316;2022-11-23T02:00:51;19.15;;;3.65;;
33138;SDS011;19501;50.948;5.316;2022-11-23T02:03:17;19.83;;;4.03;;
33138;SDS011;19501;50.948;5.316;2022-11-23T02:05:44;23.58;;;3.58;;
33138;SDS011;19501;50.948;5.316;2022-11-23T02:08:13;25.30;;;4.93;;
33138;SDS011;19501;50.948;5.316;2022-11-23T02:10:40;23.60;;;3.97;;
33138;SDS011;19501;50.948;5.316;2022-11-23T02:13:07;20.00;;;4.47;;
33138;SDS011;19501;50.948;5.316;2022-11-23T02:15:35;14.88;;;3.40;;
33138;SDS011;19501;50.948;5.316;2022-11-23T02:18:03;22.20;;;4.40;;
33138;SDS011;19501;50.948;5.316;2022-11-23T02:20:33;23.88;;;4.25;;
33138;SDS011;19501;50.948;5.316;2022-11-23T02:25:59;21.83;;;3.90;;
33138;SDS011;19501;50.948;5.316;2022-11-23T02:28:32;23.25;;;3.90;;
33138;SDS011;19501;50.948;5.316;2022-11-23T02:31:04;15.18;;;3.40;;
33138;SDS011;19501;50.948;5.316;2022-11-23T02:33:30;21.00;;;4.07;;
33138;SDS011;19501;50.948;5.316;2022-11-23T02:35:58;16.92;;;3.45;;
33138;SDS011;19501;50.948;5.316;2022-11-23T02:38:26;19.05;;;3.88;;
33138;SDS011;19501;50.948;5.316;2022-11-23T02:40:56;18.38;;;4.03;;
33138;SDS011;19501;50.948;5.316;2022-11-23T02:43:23;25.13;;;4.63;;
33138;SDS011;19501;50.948;5.316;2022-11-23T02:45:50;24.20;;;3.60;;
33138;SDS011;19501;50.948;5.316;2022-11-23T02:48:20;21.35;;;3.78;;
33138;SDS011;19501;50.948;5.316;2022-11-23T02:50:47;18.65;;;3.40;;
33138;SDS011;19501;50.948;5.316;2022-11-23T02:53:14;18.17;;;3.45;;
33138;SDS011;19501;50.948;5.316;2022-11-23T02:55:40;31.25;;;4.25;;
33138;SDS011;19501;50.948;5.316;2022-11-23T02:58:06;20.75;;;3.50;;
33138;SDS011;19501;50.948;5.316;2022-11-23T03:00:33;16.17;;;3.55;;
33138;SDS011;19501;50.948;5.316;2022-11-23T03:02:59;25.58;;;4.50;;
33138;SDS011;19501;50.948;5.316;2022-11-23T03:05:26;13.25;;;3.40;;
33138;SDS011;19501;50.948;5.316;2022-11-23T03:07:52;17.80;;;3.58;;
33138;SDS011;19501;50.948;5.316;2022-11-23T03:10:18;21.65;;;4.45;;
33138;SDS011;19501;50.948;5.316;2022-11-23T03:12:46;20.67;;;3.70;;
33138;SDS011;19501;50.948;5.316;2022-11-23T03:15:13;23.05;;;3.50;;
33138;SDS011;19501;50.948;5.316;2022-11-23T03:17:38;28.35;;;4.22;;
33138;SDS011;19501;50.948;5.316;2022-11-23T03:20:04;14.75;;;3.13;;
33138;SDS011;19501;50.948;5.316;2022-11-23T03:22:30;15.32;;;3.33;;
33138;SDS011;19501;50.948;5.316;2022-11-23T03:24:56;21.35;;;4.05;;
33138;SDS011;19501;50.948;5.316;2022-11-23T03:27:22;21.55;;;3.65;;
33138;SDS011;19501;50.948;5.316;2022-11-23T03:29:48;24.73;;;3.35;;
33138;SDS011;19501;50.948;5.316;2022-11-23T03:32:14;14.35;;;3.05;;
33138;SDS011;19501;50.948;5.316;2022-11-23T03:34:40;20.77;;;4.63;;
33138;SDS011;19501;50.948;5.316;2022-11-23T03:37:06;20.50;;;2.97;;
33138;SDS011;19501;50.948;5.316;2022-11-23T03:39:31;14.88;;;3.10;;
33138;SDS011;19501;50.948;5.316;2022-11-23T03:41:57;20.83;;;3.38;;
33138;SDS011;19501;50.948;5.316;2022-11-23T03:44:23;22.38;;;4.70;;
33138;SDS011;19501;50.948;5.316;2022-11-23T03:46:48;21.20;;;3.55;;
33138;SDS011;19501;50.948;5.316;2022-11-23T03:49:16;17.80;;;3.38;;
33138;SDS011;19501;50.948;5.316;2022-11-23T03:51:42;24.67;;;4.25;;
33138;SDS011;19501;50.948;5.316;2022-11-23T03:54:08;16.48;;;3.13;;
33138;SDS011;19501;50.948;5.316;2022-11-23T03:56:33;19.45;;;4.00;;
33138;SDS011;19501;50.948;5.316;2022-11-23T03:58:59;14.88;;;3.53;;
33138;SDS011;19501;50.948;5.316;2022-11-23T04:01:25;25.73;;;3.83;;
33138;SDS011;19501;50.948;5.316;2022-11-23T04:03:51;25.27;;;4.95;;
33138;SDS011;19501;50.948;5.316;2022-11-23T04:06:16;21.25;;;3.40;;
33138;SDS011;19501;50.948;5.316;2022-11-23T04:08:42;16.17;;;3.30;;
33138;SDS011;19501;50.948;5.316;2022-11-23T04:11:08;22.38;;;3.70;;
33138;SDS011;19501;50.948;5.316;2022-11-23T04:13:33;28.25;;;4.00;;
33138;SDS011;19501;50.948;5.316;2022-11-23T04:15:59;18.05;;;3.47;;
33138;SDS011;19501;50.948;5.316;2022-11-23T04:18:25;18.42;;;2.88;;
33138;SDS011;19501;50.948;5.316;2022-11-23T04:20:50;16.05;;;3.17;;
33138;SDS011;19501;50.948;5.316;2022-11-23T04:23:16;24.10;;;3.55;;
33138;SDS011;19501;50.948;5.316;2022-11-23T04:25:41;21.98;;;3.75;;
33138;SDS011;19501;50.948;5.316;2022-11-23T04:28:08;20.67;;;3.92;;
33138;SDS011;19501;50.948;5.316;2022-11-23T04:30:33;25.25;;;3.90;;
33138;SDS011;19501;50.948;5.316;2022-11-23T04:32:59;23.35;;;3.92;;
33138;SDS011;19501;50.948;5.316;2022-11-23T04:35:24;20.05;;;3.70;;
33138;SDS011;19501;50.948;5.316;2022-11-23T04:37:50;23.25;;;3.22;;
33138;SDS011;19501;50.948;5.316;2022-11-23T04:40:16;21.27;;;3.53;;
33138;SDS011;19501;50.948;5.316;2022-11-23T04:42:41;15.18;;;3.42;;
33138;SDS011;19501;50.948;5.316;2022-11-23T04:45:07;16.80;;;2.90;;
33138;SDS011;19501;50.948;5.316;2022-11-23T04:47:33;13.75;;;3.00;;
33138;SDS011;19501;50.948;5.316;2022-11-23T04:49:58;15.48;;;3.30;;
33138;SDS011;19501;50.948;5.316;2022-11-23T04:52:24;23.38;;;3.50;;
33138;SDS011;19501;50.948;5.316;2022-11-23T04:54:50;15.35;;;2.80;;
33138;SDS011;19501;50.948;5.316;2022-11-23T04:57:16;21.35;;;3.50;;
33138;SDS011;19501;50.948;5.316;2022-11-23T04:59:41;17.58;;;3.25;;
33138;SDS011;19501;50.948;5.316;2022-11-23T05:02:07;24.13;;;3.67;;
33138;SDS011;19501;50.948;5.316;2022-11-23T05:04:32;29.08;;;3.70;;
33138;SDS011;19501;50.948;5.316;2022-11-23T05:06:59;16.25;;;3.00;;
33138;SDS011;19501;50.948;5.316;2022-11-23T05:09:24;22.33;;;3.45;;
33138;SDS011;19501;50.948;5.316;2022-11-23T05:11:50;15.50;;;3.55;;
33138;SDS011;19501;50.948;5.316;2022-11-23T05:14:15;19.15;;;3.42;;
33138;SDS011;19501;50.948;5.316;2022-11-23T05:16:41;20.33;;;3.15;;
33138;SDS011;19501;50.948;5.316;2022-11-23T05:19:07;23.73;;;4.55;;
33138;SDS011;19501;50.948;5.316;2022-11-23T05:21:33;23.98;;;4.00;;
33138;SDS011;19501;50.948;5.316;2022-11-23T05:24:02;22.70;;;3.38;;
33138;SDS011;19501;50.948;5.316;2022-11-23T05:26:27;20.25;;;3.97;;
33138;SDS011;19501;50.948;5.316;2022-11-23T05:28:53;18.30;;;4.00;;
33138;SDS011;19501;50.948;5.316;2022-11-23T05:31:18;19.40;;;3.95;;
33138;SDS011;19501;50.948;5.316;2022-11-23T05:33:44;15.50;;;3.83;;
33138;SDS011;19501;50.948;5.316;2022-11-23T05:36:10;26.17;;;3.60;;
33138;SDS011;19501;50.948;5.316;2022-11-23T05:38:38;18.73;;;3.80;;
33138;SDS011;19501;50.948;5.316;2022-11-23T05:41:04;22.05;;;4.25;;
33138;SDS011;19501;50.948;5.316;2022-11-23T05:43:30;22.42;;;3.67;;
33138;SDS011;19501;50.948;5.316;2022-11-23T05:45:59;23.52;;;4.10;;
33138;SDS011;19501;50.948;5.316;2022-11-23T05:48:26;23.60;;;3.83;;
33138;SDS011;19501;50.948;5.316;2022-11-23T05:50:52;17.67;;;3.28;;
33138;SDS011;19501;50.948;5.316;2022-11-23T05:53:18;23.92;;;3.90;;
33138;SDS011;19501;50.948;5.316;2022-11-23T05:55:43;18.60;;;3.10;;
33138;SDS011;19501;50.948;5.316;2022-11-23T05:58:10;22.42;;;4.32;;
33138;SDS011;19501;50.948;5.316;2022-11-23T06:00:36;25.98;;;3.58;;
33138;SDS011;19501;50.948;5.316;2022-11-23T06:03:02;22.65;;;3.17;;
33138;SDS011;19501;50.948;5.316;2022-11-23T06:05:28;22.48;;;3.80;;
33138;SDS011;19501;50.948;5.316;2022-11-23T06:07:54;21.65;;;3.63;;
33138;SDS011;19501;50.948;5.316;2022-11-23T06:10:21;23.65;;;3.17;;
33138;SDS011;19501;50.948;5.316;2022-11-23T06:12:47;22.98;;;3.67;;
33138;SDS011;19501;50.948;5.316;2022-11-23T06:15:14;16.10;;;2.97;;
33138;SDS011;19501;50.948;5.316;2022-11-23T06:17:40;15.90;;;3.38;;
33138;SDS011;19501;50.948;5.316;2022-11-23T06:20:06;15.00;;;2.88;;
33138;SDS011;19501;50.948;5.316;2022-11-23T06:22:33;19.90;;;3.58;;
33138;SDS011;19501;50.948;5.316;2022-11-23T06:24:59;13.75;;;2.97;;
33138;SDS011;19501;50.948;5.316;2022-11-23T06:27:24;22.95;;;3.53;;
33138;SDS011;19501;50.948;5.316;2022-11-23T06:29:50;17.67;;;3.17;;
33138;SDS011;19501;50.948;5.316;2022-11-23T06:32:16;17.20;;;3.55;;
33138;SDS011;19501;50.948;5.316;2022-11-23T06:34:42;27.00;;;4.63;;
33138;SDS011;19501;50.948;5.316;2022-11-23T06:37:08;17.67;;;3.28;;
33138;SDS011;19501;50.948;5.316;2022-11-23T06:39:33;12.07;;;3.15;;
33138;SDS011;19501;50.948;5.316;2022-11-23T06:42:00;22.27;;;3.40;;
33138;SDS011;19501;50.948;5.316;2022-11-23T06:44:26;20.15;;;3.88;;
33138;SDS011;19501;50.948;5.316;2022-11-23T06:46:51;21.23;;;4.15;;
33138;SDS011;19501;50.948;5.316;2022-11-23T06:49:17;15.68;;;4.35;;
33138;SDS011;19501;50.948;5.316;2022-11-23T06:51:45;14.15;;;3.20;;
33138;SDS011;19501;50.948;5.316;2022-11-23T06:54:11;17.67;;;3.60;;
33138;SDS011;19501;50.948;5.316;2022-11-23T06:56:37;23.20;;;4.05;;
33138;SDS011;19501;50.948;5.316;2022-11-23T06:59:03;21.15;;;3.90;;
33138;SDS011;19501;50.948;5.316;2022-11-23T07:01:28;24.02;;;3.85;;
33138;SDS011;19501;50.948;5.316;2022-11-23T07:03:54;17.80;;;3.90;;
33138;SDS011;19501;50.948;5.316;2022-11-23T07:06:20;30.05;;;4.00;;
33138;SDS011;19501;50.948;5.316;2022-11-23T07:08:46;25.48;;;4.05;;
33138;SDS011;19501;50.948;5.316;2022-11-23T07:11:12;25.17;;;3.60;;
33138;SDS011;19501;50.948;5.316;2022-11-23T07:13:37;21.60;;;4.35;;
33138;SDS011;19501;50.948;5.316;2022-11-23T07:16:04;20.00;;;3.92;;
33138;SDS011;19501;50.948;5.316;2022-11-23T07:18:30;22.00;;;3.35;;
33138;SDS011;19501;50.948;5.316;2022-11-23T07:20:56;20.58;;;3.63;;
33138;SDS011;19501;50.948;5.316;2022-11-23T07:23:23;20.40;;;4.10;;
33138;SDS011;19501;50.948;5.316;2022-11-23T07:25:49;28.13;;;4.45;;
33138;SDS011;19501;50.948;5.316;2022-11-23T07:28:15;21.13;;;3.63;;
33138;SDS011;19501;50.948;5.316;2022-11-23T07:30:43;20.83;;;3.75;;
33138;SDS011;19501;50.948;5.316;2022-11-23T07:33:10;21.95;;;3.95;;
33138;SDS011;19501;50.948;5.316;2022-11-23T07:35:37;22.23;;;3.70;;
33138;SDS011;19501;50.948;5.316;2022-11-23T07:38:04;18.45;;;3.17;;
33138;SDS011;19501;50.948;5.316;2022-11-23T07:40:32;28.27;;;4.25;;
33138;SDS011;19501;50.948;5.316;2022-11-23T07:42:59;23.10;;;3.33;;
33138;SDS011;19501;50.948;5.316;2022-11-23T07:45:26;16.67;;;3.72;;
33138;SDS011;19501;50.948;5.316;2022-11-23T07:47:56;18.02;;;3.70;;
33138;SDS011;19501;50.948;5.316;2022-11-23T07:50:27;21.67;;;3.97;;
33138;SDS011;19501;50.948;5.316;2022-11-23T07:52:53;24.85;;;4.60;;
33138;SDS011;19501;50.948;5.316;2022-11-23T07:55:19;15.85;;;3.92;;
33138;SDS011;19501;50.948;5.316;2022-11-23T07:57:44;22.35;;;4.07;;
33138;SDS011;19501;50.948;5.316;2022-11-23T08:00:11;14.48;;;3.60;;
33138;SDS011;19501;50.948;5.316;2022-11-23T08:02:37;26.20;;;5.43;;
33138;SDS011;19501;50.948;5.316;2022-11-23T08:05:04;25.27;;;4.80;;
33138;SDS011;19501;50.948;5.316;2022-11-23T08:07:31;29.48;;;3.95;;
33138;SDS011;19501;50.948;5.316;2022-11-23T08:09:56;21.75;;;4.40;;
33138;SDS011;19501;50.948;5.316;2022-11-23T08:12:24;21.45;;;3.53;;
33138;SDS011;19501;50.948;5.316;2022-11-23T08:14:50;19.33;;;4.07;;
33138;SDS011;19501;50.948;5.316;2022-11-23T08:17:15;24.23;;;4.82;;
33138;SDS011;19501;50.948;5.316;2022-11-23T08:19:41;23.60;;;3.92;;
33138;SDS011;19501;50.948;5.316;2022-11-23T08:22:07;21.95;;;3.55;;
33138;SDS011;19501;50.948;5.316;2022-11-23T08:24:32;19.00;;;3.88;;
33138;SDS011;19501;50.948;5.316;2022-11-23T08:26:58;22.13;;;4.05;;
33138;SDS011;19501;50.948;5.316;2022-11-23T08:29:23;18.42;;;4.55;;
33138;SDS011;19501;50.948;5.316;2022-11-23T08:31:49;15.95;;;3.60;;
33138;SDS011;19501;50.948;5.316;2022-11-23T08:34:15;26.20;;;5.20;;
33138;SDS011;19501;50.948;5.316;2022-11-23T08:36:45;22.40;;;3.60;;
33138;SDS011;19501;50.948;5.316;2022-11-23T08:39:12;18.52;;;4.30;;
33138;SDS011;19501;50.948;5.316;2022-11-23T08:41:38;18.85;;;4.50;;
33138;SDS011;19501;50.948;5.316;2022-11-23T08:44:05;17.45;;;3.00;;
33138;SDS011;19501;50.948;5.316;2022-11-23T08:46:33;18.73;;;4.15;;
33138;SDS011;19501;50.948;5.316;2022-11-23T08:49:00;16.52;;;4.22;;
33138;SDS011;19501;50.948;5.316;2022-11-23T08:51:26;13.35;;;3.25;;
33138;SDS011;19501;50.948;5.316;2022-11-23T08:53:52;19.48;;;3.72;;
33138;SDS011;19501;50.948;5.316;2022-11-23T08:56:18;21.38;;;4.28;;
33138;SDS011;19501;50.948;5.316;2022-11-23T08:58:44;24.48;;;3.95;;
33138;SDS011;19501;50.948;5.316;2022-11-23T09:01:11;22.92;;;3.63;;
33138;SDS011;19501;50.948;5.316;2022-11-23T09:03:39;20.13;;;3.10;;
33138;SDS011;19501;50.948;5.316;2022-11-23T09:06:05;15.35;;;3.10;;
33138;SDS011;19501;50.948;5.316;2022-11-23T09:08:31;16.92;;;2.88;;
33138;SDS011;19501;50.948;5.316;2022-11-23T09:11:01;18.67;;;3.42;;
33138;SDS011;19501;50.948;5.316;2022-11-23T09:13:27;17.58;;;3.08;;
33138;SDS011;19501;50.948;5.316;2022-11-23T09:16:00;17.05;;;3.45;;
33138;SDS011;19501;50.948;5.316;2022-11-23T09:18:26;12.82;;;2.90;;
33138;SDS011;19501;50.948;5.316;2022-11-23T09:20:54;19.55;;;3.00;;
33138;SDS011;19501;50.948;5.316;2022-11-23T09:23:20;20.00;;;3.10;;
33138;SDS011;19501;50.948;5.316;2022-11-23T09:25:46;15.73;;;3.60;;
33138;SDS011;19501;50.948;5.316;2022-11-23T09:28:14;18.42;;;3.58;;
33138;SDS011;19501;50.948;5.316;2022-11-23T09:30:43;15.57;;;3.20;;
33138;SDS011;19501;50.948;5.316;2022-11-23T09:33:11;12.95;;;2.95;;
33138;SDS011;19501;50.948;5.316;2022-11-23T09:35:37;12.38;;;2.83;;
33138;SDS011;19501;50.948;5.316;2022-11-23T09:38:03;16.08;;;2.80;;
33138;SDS011;19501;50.948;5.316;2022-11-23T09:40:33;20.73;;;5.22;;
33138;SDS011;19501;50.948;5.316;2022-11-23T09:45:53;16.17;;;3.67;;
33138;SDS011;19501;50.948;5.316;2022-11-23T09:50:58;17.75;;;3.45;;
33138;SDS011;19501;50.948;5.316;2022-11-23T09:53:41;14.57;;;3.10;;
33138;SDS011;19501;50.948;5.316;2022-11-23T09:56:18;22.98;;;4.93;;
33138;SDS011;19501;50.948;5.316;2022-11-23T09:58:46;17.95;;;3.92;;
33138;SDS011;19501;50.948;5.316;2022-11-23T10:01:17;15.55;;;3.40;;
33138;SDS011;19501;50.948;5.316;2022-11-23T10:03:43;12.40;;;3.35;;
33138;SDS011;19501;50.948;5.316;2022-11-23T10:08:40;15.25;;;3.45;;
33138;SDS011;19501;50.948;5.316;2022-11-23T10:14:46;12.88;;;2.95;;
33138;SDS011;19501;50.948;5.316;2022-11-23T10:24:49;14.85;;;2.78;;
33138;SDS011;19501;50.948;5.316;2022-11-23T10:27:17;12.65;;;2.90;;
33138;SDS011;19501;50.948;5.316;2022-11-23T10:29:44;12.35;;;2.90;;
33138;SDS011;19501;50.948;5.316;2022-11-23T10:35:11;24.20;;;3.72;;
33138;SDS011;19501;50.948;5.316;2022-11-23T10:37:39;9.95;;;2.50;;
33138;SDS011;19501;50.948;5.316;2022-11-23T10:40:20;5.30;;;2.55;;
33138;SDS011;19501;50.948;5.316;2022-11-23T10:42:53;11.80;;;3.10;;
33138;SDS011;19501;50.948;5.316;2022-11-23T10:45:29;9.60;;;2.38;;
33138;SDS011;19501;50.948;5.316;2022-11-23T10:47:58;14.27;;;2.83;;
33138;SDS011;19501;50.948;5.316;2022-11-23T10:52:50;12.15;;;2.17;;
33138;SDS011;19501;50.948;5.316;2022-11-23T10:55:21;13.13;;;2.50;;
33138;SDS011;19501;50.948;5.316;2022-11-23T10:57:50;16.80;;;2.55;;
33138;SDS011;19501;50.948;5.316;2022-11-23T11:00:17;9.50;;;2.50;;
33138;SDS011;19501;50.948;5.316;2022-11-23T11:02:45;9.07;;;2.17;;
33138;SDS011;19501;50.948;5.316;2022-11-23T11:08:14;9.43;;;2.10;;
33138;SDS011;19501;50.948;5.316;2022-11-23T11:10:48;12.85;;;2.55;;
33138;SDS011;19501;50.948;5.316;2022-11-23T11:16:05;8.38;;;2.05;;
33138;SDS011;19501;50.948;5.316;2022-11-23T11:18:43;11.30;;;2.53;;
33138;SDS011;19501;50.948;5.316;2022-11-23T11:21:50;12.25;;;2.22;;
33138;SDS011;19501;50.948;5.316;2022-11-23T11:24:02;4.32;;;1.55;;
33138;SDS011;19501;50.948;5.316;2022-11-23T11:26:32;9.32;;;1.60;;
33138;SDS011;19501;50.948;5.316;2022-11-23T11:29:00;7.95;;;1.80;;
33138;SDS011;19501;50.948;5.316;2022-11-23T11:37:35;9.32;;;2.05;;
33138;SDS011;19501;50.948;5.316;2022-11-23T11:45:54;9.60;;;2.20;;
33138;SDS011;19501;50.948;5.316;2022-11-23T11:48:29;6.20;;;1.90;;
33138;SDS011;19501;50.948;5.316;2022-11-23T11:51:08;10.75;;;2.45;;
33138;SDS011;19501;50.948;5.316;2022-11-23T11:53:58;3.35;;;1.98;;
33138;SDS011;19501;50.948;5.316;2022-11-23T12:01:38;5.60;;;1.90;;
33138;SDS011;19501;50.948;5.316;2022-11-23T12:04:14;4.55;;;1.50;;
33138;SDS011;19501;50.948;5.316;2022-11-23T12:06:55;10.23;;;2.22;;
33138;SDS011;19501;50.948;5.316;2022-11-23T12:09:54;12.18;;;2.58;;
33138;SDS011;19501;50.948;5.316;2022-11-23T12:12:27;15.15;;;2.33;;
33138;SDS011;19501;50.948;5.316;2022-11-23T12:14:53;8.15;;;2.20;;
33138;SDS011;19501;50.948;5.316;2022-11-23T12:20:38;10.05;;;2.90;;
33138;SDS011;19501;50.948;5.316;2022-11-23T12:26:53;6.10;;;1.80;;
33138;SDS011;19501;50.948;5.316;2022-11-23T12:31:48;9.10;;;1.92;;
33138;SDS011;19501;50.948;5.316;2022-11-23T12:42:48;7.18;;;2.40;;
33138;SDS011;19501;50.948;5.316;2022-11-23T12:51:38;11.15;;;2.45;;
33138;SDS011;19501;50.948;5.316;2022-11-23T12:59:02;7.28;;;2.70;;
33138;SDS011;19501;50.948;5.316;2022-11-23T13:01:30;6.03;;;1.88;;
33138;SDS011;19501;50.948;5.316;2022-11-23T13:20:44;8.07;;;2.22;;
33138;SDS011;19501;50.948;5.316;2022-11-23T13:23:38;16.60;;;3.20;;
33138;SDS011;19501;50.948;5.316;2022-11-23T13:26:15;9.30;;;3.30;;
33138;SDS011;19501;50.948;5.316;2022-11-23T13:28:41;12.95;;;2.80;;
33138;SDS011;19501;50.948;5.316;2022-11-23T13:33:41;11.88;;;2.95;;
33138;SDS011;19501;50.948;5.316;2022-11-23T13:36:08;17.65;;;3.65;;
33138;SDS011;19501;50.948;5.316;2022-11-23T13:38:36;15.68;;;3.47;;
33138;SDS011;19501;50.948;5.316;2022-11-23T13:44:19;11.80;;;3.17;;
33138;SDS011;19501;50.948;5.316;2022-11-23T13:47:03;12.02;;;2.78;;
33138;SDS011;19501;50.948;5.316;2022-11-23T13:49:49;13.95;;;3.40;;
33138;SDS011;19501;50.948;5.316;2022-11-23T13:52:32;14.90;;;3.13;;
33138;SDS011;19501;50.948;5.316;2022-11-23T13:55:05;15.85;;;3.67;;
33138;SDS011;19501;50.948;5.316;2022-11-23T13:57:34;9.57;;;2.45;;
33138;SDS011;19501;50.948;5.316;2022-11-23T14:11:30;9.32;;;3.15;;
33138;SDS011;19501;50.948;5.316;2022-11-23T14:14:04;10.90;;;3.45;;
33138;SDS011;19501;50.948;5.316;2022-11-23T14:19:13;8.82;;;3.00;;
33138;SDS011;19501;50.948;5.316;2022-11-23T14:21:54;11.68;;;2.53;;
33138;SDS011;19501;50.948;5.316;2022-11-23T14:24:54;15.13;;;4.10;;
33138;SDS011;19501;50.948;5.316;2022-11-23T14:32:55;19.05;;;7.28;;
33138;SDS011;19501;50.948;5.316;2022-11-23T14:41:08;15.48;;;4.75;;
33138;SDS011;19501;50.948;5.316;2022-11-23T14:43:41;14.45;;;4.30;;
33138;SDS011;19501;50.948;5.316;2022-11-23T14:46:16;14.80;;;4.38;;
33138;SDS011;19501;50.948;5.316;2022-11-23T14:48:44;14.18;;;3.85;;
33138;SDS011;19501;50.948;5.316;2022-11-23T14:51:12;15.98;;;3.80;;
33138;SDS011;19501;50.948;5.316;2022-11-23T14:53:43;20.40;;;4.00;;
33138;SDS011;19501;50.948;5.316;2022-11-23T14:58:58;16.85;;;3.72;;
33138;SDS011;19501;50.948;5.316;2022-11-23T15:01:28;7.03;;;2.70;;
33138;SDS011;19501;50.948;5.316;2022-11-23T15:03:54;8.48;;;2.55;;
33138;SDS011;19501;50.948;5.316;2022-11-23T15:06:25;8.55;;;2.72;;
33138;SDS011;19501;50.948;5.316;2022-11-23T15:09:06;10.23;;;3.20;;
33138;SDS011;19501;50.948;5.316;2022-11-23T15:11:39;10.68;;;3.50;;
33138;SDS011;19501;50.948;5.316;2022-11-23T15:14:15;11.52;;;3.20;;
33138;SDS011;19501;50.948;5.316;2022-11-23T15:16:43;10.93;;;3.25;;
33138;SDS011;19501;50.948;5.316;2022-11-23T15:19:46;11.32;;;3.22;;
33138;SDS011;19501;50.948;5.316;2022-11-23T15:22:02;12.15;;;3.20;;
33138;SDS011;19501;50.948;5.316;2022-11-23T15:24:27;9.20;;;3.03;;
33138;SDS011;19501;50.948;5.316;2022-11-23T15:26:55;10.80;;;3.13;;
33138;SDS011;19501;50.948;5.316;2022-11-23T15:29:33;12.00;;;3.20;;
33138;SDS011;19501;50.948;5.316;2022-11-23T15:32:02;13.60;;;3.67;;
33138;SDS011;19501;50.948;5.316;2022-11-23T15:37:10;9.77;;;3.13;;
33138;SDS011;19501;50.948;5.316;2022-11-23T15:39:36;11.63;;;3.25;;
33138;SDS011;19501;50.948;5.316;2022-11-23T15:42:02;8.85;;;3.03;;
33138;SDS011;19501;50.948;5.316;2022-11-23T15:44:29;13.63;;;3.10;;
33138;SDS011;19501;50.948;5.316;2022-11-23T15:46:57;9.52;;;3.33;;
33138;SDS011;19501;50.948;5.316;2022-11-23T15:49:25;8.68;;;2.92;;
33138;SDS011;19501;50.948;5.316;2022-11-23T15:51:50;15.10;;;3.45;;
33138;SDS011;19501;50.948;5.316;2022-11-23T15:54:23;17.60;;;3.78;;
33138;SDS011;19501;50.948;5.316;2022-11-23T15:56:52;15.07;;;3.67;;
33138;SDS011;19501;50.948;5.316;2022-11-23T16:02:22;12.55;;;2.95;;
33138;SDS011;19501;50.948;5.316;2022-11-23T16:12:48;13.05;;;3.78;;
33138;SDS011;19501;50.948;5.316;2022-11-23T16:15:35;13.98;;;3.63;;
33138;SDS011;19501;50.948;5.316;2022-11-23T16:20:45;13.18;;;3.72;;
33138;SDS011;19501;50.948;5.316;2022-11-23T16:23:46;12.88;;;3.58;;
33138;SDS011;19501;50.948;5.316;2022-11-23T16:26:13;14.23;;;4.25;;
33138;SDS011;19501;50.948;5.316;2022-11-23T16:28:47;14.23;;;3.92;;
33138;SDS011;19501;50.948;5.316;2022-11-23T16:31:25;14.18;;;4.55;;
33138;SDS011;19501;50.948;5.316;2022-11-23T16:33:53;12.98;;;4.80;;
33138;SDS011;19501;50.948;5.316;2022-11-23T16:36:19;17.02;;;4.45;;
33138;SDS011;19501;50.948;5.316;2022-11-23T16:38:45;15.45;;;4.55;;
33138;SDS011;19501;50.948;5.316;2022-11-23T16:41:10;17.27;;;4.97;;
33138;SDS011;19501;50.948;5.316;2022-11-23T16:43:36;19.60;;;6.57;;
33138;SDS011;19501;50.948;5.316;2022-11-23T16:46:02;12.13;;;4.30;;
33138;SDS011;19501;50.948;5.316;2022-11-23T16:48:35;17.73;;;4.65;;
33138;SDS011;19501;50.948;5.316;2022-11-23T16:51:03;11.10;;;4.38;;
33138;SDS011;19501;50.948;5.316;2022-11-23T16:53:29;14.95;;;5.18;;
33138;SDS011;19501;50.948;5.316;2022-11-23T16:55:57;15.45;;;5.13;;
33138;SDS011;19501;50.948;5.316;2022-11-23T16:58:24;15.05;;;4.88;;
33138;SDS011;19501;50.948;5.316;2022-11-23T17:00:59;17.23;;;5.68;;
33138;SDS011;19501;50.948;5.316;2022-11-23T17:03:28;13.02;;;4.82;;
33138;SDS011;19501;50.948;5.316;2022-11-23T17:05:54;17.05;;;4.68;;
33138;SDS011;19501;50.948;5.316;2022-11-23T17:08:20;14.30;;;4.35;;
33138;SDS011;19501;50.948;5.316;2022-11-23T17:10:46;15.00;;;4.47;;